Time;durP1;ratioP1;P1;durP2;ratioP2;P2;SDS_P1;SDS_P2;PMS_P1;PMS_P2;Temp;Humidity;BMP_temperature;BMP_pressure;BME280_temperature;BME280_humidity;BME280_pressure;Samples;Min_cycle;Max_cycle;Signal;HPM_P1;HPM_P2
2021/06/07 00:01:31;;;;;;;4.43;2.72;;;;;;;16.10;57.76;102331.66;5054612;28;20053;-48
2021/06/07 00:03:59;;;;;;;6.75;2.53;;;;;;;16.12;57.60;102329.44;5053659;28;20057;-47
2021/06/07 00:06:27;;;;;;;4.93;2.60;;;;;;;16.15;57.77;102324.22;5054630;28;20473;-48
2021/06/07 00:08:55;;;;;;;4.13;2.17;;;;;;;16.15;57.40;102324.22;5054983;28;20045;-46
2021/06/07 00:11:23;;;;;;;7.60;2.72;;;;;;;16.16;57.46;102331.41;5054746;28;20080;-50
2021/06/07 00:13:51;;;;;;;8.40;2.80;;;;;;;16.13;58.01;102326.41;5054292;28;20492;-48
2021/06/07 00:16:19;;;;;;;7.10;2.80;;;;;;;16.09;58.11;102330.81;5054853;28;20091;-47
2021/06/07 00:18:47;;;;;;;8.07;2.85;;;;;;;16.05;58.09;102329.69;5054611;28;20048;-49
2021/06/07 00:21:20;;;;;;;5.63;2.85;;;;;;;16.04;58.06;102327.19;5054359;28;20045;-49
2021/06/07 00:23:48;;;;;;;5.05;2.85;;;;;;;15.93;58.39;102327.16;5069852;28;20103;-47
2021/06/07 00:26:16;;;;;;;6.45;2.60;;;;;;;15.87;59.04;102332.88;5054460;28;20041;-48
2021/06/07 00:28:44;;;;;;;4.00;2.55;;;;;;;15.77;59.28;102323.50;5053718;28;20388;-46
2021/06/07 00:31:12;;;;;;;7.53;2.90;;;;;;;15.66;59.39;102326.44;5054114;28;20099;-48
2021/06/07 00:33:40;;;;;;;7.95;2.90;;;;;;;15.62;59.90;102328.88;5054033;28;20071;-49
2021/06/07 00:36:09;;;;;;;6.80;2.72;;;;;;;15.68;60.08;102333.31;5054146;28;20095;-48
2021/06/07 00:38:37;;;;;;;6.75;3.00;;;;;;;15.72;59.86;102325.41;5053986;28;20071;-50
2021/06/07 00:41:08;;;;;;;7.53;3.08;;;;;;;15.73;59.55;102322.38;5053005;28;20079;-51
2021/06/07 00:43:36;;;;;;;7.05;2.88;;;;;;;15.70;59.64;102328.41;5053723;28;20045;-48
2021/06/07 00:46:04;;;;;;;5.75;2.58;;;;;;;15.57;60.32;102328.03;5053802;28;20041;-51
2021/06/07 00:48:33;;;;;;;9.35;3.03;;;;;;;15.48;60.70;102331.25;5054015;28;20037;-50
2021/06/07 00:51:04;;;;;;;5.05;2.75;;;;;;;15.41;60.90;102327.91;5053567;28;20104;-48
2021/06/07 00:53:32;;;;;;;6.07;2.70;;;;;;;15.29;61.25;102319.84;5053957;28;20053;-47
2021/06/07 00:56:03;;;;;;;8.20;3.10;;;;;;;15.29;61.46;102321.78;5053796;28;20511;-49
2021/06/07 00:58:34;;;;;;;5.05;2.80;;;;;;;15.28;61.32;102320.94;5053821;28;20102;-48
2021/06/07 01:01:03;;;;;;;4.60;2.80;;;;;;;15.25;61.63;102331.63;5053931;28;20480;-47
2021/06/07 01:03:31;;;;;;;4.95;2.95;;;;;;;15.12;62.69;102317.25;5053967;28;20045;-49
2021/06/07 01:05:59;;;;;;;6.47;2.90;;;;;;;15.21;61.99;102325.84;5053545;28;20045;-49
2021/06/07 01:08:28;;;;;;;12.20;3.40;;;;;;;15.29;61.94;102311.59;5053311;28;20107;-48
2021/06/07 01:10:57;;;;;;;7.00;3.42;;;;;;;15.25;62.03;102315.13;5053374;28;20450;-49
2021/06/07 01:13:25;;;;;;;7.80;3.00;;;;;;;15.24;62.06;102322.56;5053762;28;20092;-47
2021/06/07 01:15:54;;;;;;;5.97;3.10;;;;;;;15.28;61.98;102311.88;5053873;28;20504;-50
2021/06/07 01:18:23;;;;;;;9.23;3.40;;;;;;;15.31;61.63;102311.34;5053120;28;20057;-49
2021/06/07 01:20:54;;;;;;;8.00;2.90;;;;;;;15.37;61.84;102318.56;5052084;28;20083;-48
2021/06/07 01:23:22;;;;;;;8.75;3.47;;;;;;;15.38;61.64;102313.88;5053045;28;20036;-48
2021/06/07 01:25:50;;;;;;;5.63;3.10;;;;;;;15.39;61.40;102308.09;5052759;28;20037;-48
2021/06/07 01:28:37;;;;;;;5.68;3.30;;;;;;;15.34;61.22;102308.94;5066327;28;20501;-48
2021/06/07 01:31:06;;;;;;;12.38;3.40;;;;;;;15.23;61.77;102304.44;5052109;28;20087;-48
2021/06/07 01:33:54;;;;;;;7.07;3.28;;;;;;;15.21;61.69;102308.53;5051724;28;20179;-49
2021/06/07 01:36:22;;;;;;;9.90;3.05;;;;;;;15.17;61.75;102302.72;5053269;28;20464;-48
2021/06/07 01:38:51;;;;;;;5.70;3.10;;;;;;;15.17;61.88;102305.47;5052954;28;20411;-49
2021/06/07 01:41:37;;;;;;;7.95;3.35;;;;;;;15.18;61.25;102303.59;5046250;28;20050;-48
2021/06/07 01:44:05;;;;;;;6.85;3.40;;;;;;;15.09;61.58;102295.00;5053300;28;20407;-46
2021/06/07 01:46:32;;;;;;;7.53;3.20;;;;;;;14.99;61.77;102300.41;5053502;28;20067;-47
2021/06/07 01:49:18;;;;;;;;;;;;;;;15.00;61.89;102299.31;5053720;28;20508;-46
2021/06/07 01:52:05;;;;;;;5.68;3.20;;;;;;;15.01;61.75;102295.47;5052367;28;20310;-47
2021/06/07 01:54:32;;;;;;;4.95;3.08;;;;;;;15.07;61.82;102299.91;5052897;28;20530;-48
2021/06/07 01:57:00;;;;;;;7.07;3.33;;;;;;;15.04;61.38;102294.97;5053341;28;20053;-49
2021/06/07 01:59:46;;;;;;;;;;;;;;;15.05;61.37;102299.34;5053592;28;20048;-49
2021/06/07 02:02:13;;;;;;;6.10;3.03;;;;;;;14.98;61.33;102301.47;5053387;28;20383;-50
2021/06/07 02:04:41;;;;;;;10.52;3.67;;;;;;;14.90;61.52;102298.13;5053302;28;20048;-51
2021/06/07 02:07:09;;;;;;;9.23;3.88;;;;;;;14.88;61.60;102293.97;5052707;28;20470;-48
2021/06/07 02:09:40;;;;;;;7.95;3.42;;;;;;;14.87;61.72;102295.09;5052779;28;20045;-49
2021/06/07 02:12:08;;;;;;;6.95;3.00;;;;;;;14.90;61.34;102303.59;5052729;28;20047;-48
2021/06/07 02:14:36;;;;;;;7.90;3.00;;;;;;;14.94;61.32;102303.13;5052884;28;20045;-48
2021/06/07 02:17:04;;;;;;;7.05;3.10;;;;;;;15.01;60.92;102306.44;5052795;28;20080;-47
2021/06/07 02:19:32;;;;;;;6.50;3.25;;;;;;;14.94;61.05;102303.13;5052626;28;20033;-49
2021/06/07 02:21:59;;;;;;;6.97;3.08;;;;;;;14.93;61.05;102306.94;5052947;28;20083;-48
2021/06/07 02:24:27;;;;;;;6.20;3.10;;;;;;;14.89;60.92;102307.47;5052059;28;20591;-46
2021/06/07 02:26:54;;;;;;;4.88;2.80;;;;;;;14.90;61.07;102308.28;5052587;28;20045;-48
2021/06/07 02:29:22;;;;;;;7.32;3.25;;;;;;;14.87;60.86;102301.41;5052460;28;20499;-49
2021/06/07 02:31:50;;;;;;;7.72;3.20;;;;;;;14.88;61.06;102299.47;5052502;28;20549;-48
2021/06/07 02:34:17;;;;;;;6.40;3.47;;;;;;;14.91;60.93;102305.28;5052473;28;20048;-50
2021/06/07 02:36:45;;;;;;;4.85;3.15;;;;;;;14.94;60.56;102300.38;5052295;28;20044;-49
2021/06/07 02:39:15;;;;;;;8.23;3.38;;;;;;;14.85;60.58;102300.81;5051997;28;20144;-49
2021/06/07 02:41:44;;;;;;;7.88;3.40;;;;;;;14.79;60.78;102306.53;5051729;28;20044;-47
2021/06/07 02:44:12;;;;;;;5.45;3.05;;;;;;;14.78;60.72;102305.69;5052453;28;20492;-50
2021/06/07 02:46:39;;;;;;;7.13;3.25;;;;;;;14.76;60.88;102304.31;5052264;28;20069;-51
2021/06/07 02:49:07;;;;;;;7.15;3.35;;;;;;;14.78;60.72;102310.38;5052546;28;20475;-48
2021/06/07 02:51:35;;;;;;;6.55;2.97;;;;;;;14.83;60.37;102305.75;5051926;28;20049;-49
2021/06/07 02:54:03;;;;;;;8.50;3.55;;;;;;;14.83;60.37;102307.66;5051681;28;20040;-49
2021/06/07 02:56:31;;;;;;;9.13;2.80;;;;;;;14.80;60.21;102314.50;5052384;28;20134;-49
2021/06/07 02:58:58;;;;;;;7.05;3.10;;;;;;;14.73;60.09;102313.88;5051898;28;20044;-48
2021/06/07 03:01:26;;;;;;;8.05;3.47;;;;;;;14.67;60.38;102317.66;5052106;28;20045;-50
2021/06/07 03:03:53;;;;;;;4.55;2.90;;;;;;;14.63;60.72;102320.09;5051678;28;20479;-51
2021/06/07 03:06:21;;;;;;;5.55;3.05;;;;;;;14.62;60.35;102312.13;5051724;28;20045;-50
2021/06/07 03:08:49;;;;;;;6.53;2.95;;;;;;;14.59;60.49;102318.13;5051754;28;20059;-48
2021/06/07 03:11:16;;;;;;;9.27;3.53;;;;;;;14.55;60.77;102327.94;5052174;28;20045;-47
2021/06/07 03:13:44;;;;;;;4.63;2.90;;;;;;;14.56;60.75;102321.41;5052116;28;20079;-48
2021/06/07 03:16:12;;;;;;;6.07;3.10;;;;;;;14.55;61.04;102328.81;5052262;28;20385;-51
2021/06/07 03:18:41;;;;;;;6.70;3.15;;;;;;;14.53;60.71;102324.59;5052307;28;20385;-54
2021/06/07 03:21:09;;;;;;;7.72;2.95;;;;;;;14.50;60.87;102323.19;5051566;28;20045;-50
2021/06/07 03:23:38;;;;;;;8.30;3.20;;;;;;;14.52;60.86;102329.25;5051841;28;20079;-51
2021/06/07 03:26:07;;;;;;;7.00;3.15;;;;;;;14.54;60.87;102327.13;5052293;28;20091;-52
2021/06/07 03:28:35;;;;;;;6.55;3.30;;;;;;;14.55;60.99;102331.53;5052280;28;20045;-49
2021/06/07 03:31:03;;;;;;;6.07;3.00;;;;;;;14.60;60.88;102330.75;5051699;28;20037;-50
2021/06/07 03:33:31;;;;;;;6.15;3.00;;;;;;;14.63;60.54;102327.50;5052140;28;20483;-50
2021/06/07 03:36:00;;;;;;;7.07;3.53;;;;;;;14.60;60.59;102328.00;5051400;28;20057;-49
2021/06/07 03:38:29;;;;;;;5.18;3.00;;;;;;;14.58;60.70;102338.44;5051944;28;20045;-51
2021/06/07 03:40:57;;;;;;;5.95;3.10;;;;;;;14.52;59.80;102328.44;5052037;28;20080;-49
2021/06/07 03:43:34;;;;;;;9.15;3.00;;;;;;;14.35;60.78;102328.53;5051470;28;20122;-48
2021/06/07 03:46:02;;;;;;;5.45;2.88;;;;;;;14.30;60.63;102332.03;5052075;28;20045;-48
2021/06/07 03:48:30;;;;;;;3.72;2.70;;;;;;;14.34;60.41;102327.69;5051445;28;20045;-48
2021/06/07 03:50:58;;;;;;;7.82;2.85;;;;;;;14.40;60.37;102331.31;5051270;28;20041;-50
2021/06/07 03:53:26;;;;;;;6.72;3.10;;;;;;;14.42;60.27;102329.97;5051581;28;20083;-51
2021/06/07 03:55:54;;;;;;;6.70;2.78;;;;;;;14.40;60.07;102326.66;5051697;28;20496;-46
2021/06/07 03:58:23;;;;;;;7.32;3.10;;;;;;;14.40;60.38;102325.84;5051678;28;20053;-47
2021/06/07 04:00:51;;;;;;;5.70;3.10;;;;;;;14.44;60.33;102330.56;5050620;28;20091;-48
2021/06/07 04:03:19;;;;;;;8.52;3.05;;;;;;;14.47;59.91;102326.47;5050535;28;20041;-52
2021/06/07 04:05:47;;;;;;;5.28;2.90;;;;;;;14.44;60.31;102333.28;5051169;28;20041;-48
2021/06/07 04:08:14;;;;;;;6.03;2.75;;;;;;;14.45;60.23;102332.19;5051610;28;20045;-50
2021/06/07 04:10:46;;;;;;;5.70;3.10;;;;;;;14.46;60.08;102336.63;5051223;28;20492;-46
2021/06/07 04:13:14;;;;;;;5.82;2.97;;;;;;;14.46;60.27;102331.13;5051437;28;20051;-48
2021/06/07 04:15:41;;;;;;;3.65;2.80;;;;;;;14.45;60.28;102336.84;5052164;28;20055;-47
2021/06/07 04:18:10;;;;;;;5.85;3.22;;;;;;;14.44;60.25;102338.78;5055285;28;20091;-49
2021/06/07 04:20:37;;;;;;;7.30;3.30;;;;;;;14.44;60.62;102332.47;5054551;28;20045;-48
2021/06/07 04:23:05;;;;;;;6.63;3.30;;;;;;;14.41;60.76;102338.47;5055141;28;20041;-47
2021/06/07 04:25:34;;;;;;;10.05;3.40;;;;;;;14.33;60.80;102337.00;5054070;28;20040;-49
2021/06/07 04:28:02;;;;;;;6.13;3.15;;;;;;;14.26;60.75;102339.09;5041496;28;20492;-46
2021/06/07 04:30:30;;;;;;;9.15;3.60;;;;;;;14.23;61.25;102342.38;5055178;28;20381;-46
2021/06/07 04:32:59;;;;;;;5.60;3.00;;;;;;;14.24;61.06;102344.03;5054995;28;20468;-45
2021/06/07 04:35:28;;;;;;;10.15;3.25;;;;;;;14.30;60.96;102332.03;5054703;28;20044;-46
2021/06/07 04:37:56;;;;;;;4.85;2.70;;;;;;;14.37;60.80;102337.31;5054570;28;20041;-45
2021/06/07 04:40:27;;;;;;;4.78;3.00;;;;;;;14.45;60.54;102332.19;5053468;28;20033;-48
2021/06/07 04:42:56;;;;;;;6.15;2.60;;;;;;;14.51;60.44;102333.09;5054576;28;20057;-48
2021/06/07 04:45:24;;;;;;;5.85;3.00;;;;;;;14.57;60.15;102336.75;5054628;28;20063;-48
2021/06/07 04:47:52;;;;;;;6.25;3.33;;;;;;;14.55;60.32;102341.66;5054672;28;20107;-48
2021/06/07 04:50:22;;;;;;;9.20;3.25;;;;;;;14.48;60.00;102344.59;5054204;28;20506;-47
2021/06/07 04:52:57;;;;;;;4.40;2.90;;;;;;;14.41;59.93;102344.78;5054333;28;20076;-47
2021/06/07 04:55:42;;;;;;;4.57;3.00;;;;;;;14.31;60.85;102338.34;5054468;28;20111;-49
2021/06/07 04:58:17;;;;;;;4.07;2.70;;;;;;;14.37;60.86;102340.88;5053659;28;20061;-47
2021/06/07 05:00:50;;;;;;;5.35;2.80;;;;;;;14.46;60.50;102335.78;5054150;28;20454;-47
2021/06/07 05:03:18;;;;;;;5.72;2.78;;;;;;;14.51;60.38;102335.03;5053599;28;20134;-53
2021/06/07 05:05:47;;;;;;;7.97;3.00;;;;;;;14.55;60.08;102341.66;5053996;28;20320;-50
2021/06/07 05:08:15;;;;;;;5.05;3.00;;;;;;;14.47;60.41;102337.44;5053973;28;20056;-50
2021/06/07 05:10:43;;;;;;;8.25;3.25;;;;;;;14.41;59.97;102330.25;5052371;28;20381;-50
2021/06/07 05:13:11;;;;;;;6.57;3.13;;;;;;;14.20;60.47;102332.75;5053701;28;20095;-48
2021/06/07 05:15:38;;;;;;;8.02;3.35;;;;;;;14.21;60.62;102337.13;5053898;28;20045;-51
2021/06/07 05:18:06;;;;;;;6.88;3.20;;;;;;;14.17;60.68;102335.19;5053371;28;20065;-48
2021/06/07 05:20:34;;;;;;;6.78;2.85;;;;;;;14.16;61.26;102341.72;5053283;28;20041;-50
2021/06/07 05:23:06;;;;;;;5.70;2.85;;;;;;;14.29;61.06;102346.84;5053523;28;20041;-50
2021/06/07 05:25:34;;;;;;;5.43;2.65;;;;;;;14.44;60.55;102348.94;5053649;28;20136;-50
2021/06/07 05:28:04;;;;;;;7.45;2.80;;;;;;;14.51;60.11;102346.00;5053115;28;20048;-48
2021/06/07 05:30:33;;;;;;;4.40;2.85;;;;;;;14.59;60.15;102348.31;5053666;28;20068;-49
2021/06/07 05:33:00;;;;;;;6.43;3.00;;;;;;;14.62;60.04;102347.78;5052837;28;20041;-48
2021/06/07 05:35:31;;;;;;;5.75;3.10;;;;;;;14.63;59.91;102349.44;5053237;28;20049;-49
2021/06/07 05:37:59;;;;;;;6.15;2.90;;;;;;;14.61;60.15;102344.22;5053015;28;20082;-49
2021/06/07 05:40:28;;;;;;;6.03;3.00;;;;;;;14.61;60.13;102346.13;5053459;28;20483;-48
2021/06/07 05:42:56;;;;;;;6.57;3.03;;;;;;;14.60;60.54;102353.53;5048896;28;20041;-47
2021/06/07 05:45:25;;;;;;;5.05;2.80;;;;;;;14.60;60.68;102345.31;5052922;28;20491;-48
2021/06/07 05:47:56;;;;;;;6.07;2.45;;;;;;;14.69;60.78;102346.47;5053000;28;20044;-49
2021/06/07 05:50:26;;;;;;;13.02;3.22;;;;;;;14.59;60.41;102351.88;5053001;28;20053;-48
2021/06/07 05:52:54;;;;;;;5.93;2.80;;;;;;;14.52;60.34;102353.13;5053315;28;20049;-49
2021/06/07 05:55:25;;;;;;;5.32;2.33;;;;;;;14.47;60.71;102354.72;5053537;28;20037;-48
2021/06/07 05:58:00;;;;;;;4.57;3.00;;;;;;;14.56;60.46;102351.56;5053997;28;20059;-52
2021/06/07 06:00:34;;;;;;;4.83;2.53;;;;;;;14.60;60.19;102349.94;5055311;28;20051;-48
2021/06/07 06:03:02;;;;;;;5.85;2.88;;;;;;;14.68;59.80;102344.84;5055318;28;20303;-48
2021/06/07 06:05:31;;;;;;;7.07;3.03;;;;;;;14.74;59.20;102355.84;5054468;28;20069;-51
2021/06/07 06:07:59;;;;;;;3.10;2.33;;;;;;;14.75;59.38;102346.56;5053714;28;20052;-48
2021/06/07 06:10:27;;;;;;;5.50;2.30;;;;;;;14.82;58.57;102349.94;5052635;28;20107;-53
2021/06/07 06:12:54;;;;;;;5.60;3.08;;;;;;;14.92;58.70;102355.50;5052752;28;20037;-51
2021/06/07 06:15:24;;;;;;;6.18;2.80;;;;;;;15.01;58.81;102350.34;5052575;28;20563;-49
2021/06/07 06:17:53;;;;;;;5.75;2.88;;;;;;;15.01;57.34;102348.47;5051154;28;20407;-49
2021/06/07 06:20:21;;;;;;;6.28;2.60;;;;;;;14.95;57.75;102344.00;5052343;28;20064;-51
2021/06/07 06:22:49;;;;;;;6.75;3.38;;;;;;;14.98;57.62;102339.91;5052648;28;20076;-52
2021/06/07 06:25:18;;;;;;;5.95;2.67;;;;;;;15.08;57.43;102345.47;5052851;28;20045;-50
2021/06/07 06:27:45;;;;;;;6.07;2.90;;;;;;;15.12;57.25;102343.88;5052560;28;20099;-48
2021/06/07 06:30:17;;;;;;;11.15;6.68;;;;;;;15.19;57.82;102347.22;5051808;28;20053;-50
2021/06/07 06:32:48;;;;;;;9.48;5.25;;;;;;;15.26;57.23;102341.53;5052136;28;20037;-52
2021/06/07 06:35:16;;;;;;;6.97;2.95;;;;;;;15.29;57.70;102343.75;5052439;28;20499;-51
2021/06/07 06:37:45;;;;;;;5.10;2.40;;;;;;;15.33;56.05;102345.69;5051932;28;20051;-52
2021/06/07 06:40:18;;;;;;;4.90;2.05;;;;;;;15.41;55.77;102346.31;5051117;28;20094;-51
2021/06/07 06:42:46;;;;;;;5.82;1.95;;;;;;;15.39;54.84;102348.47;5052039;28;20052;-51
2021/06/07 06:45:15;;;;;;;4.68;2.38;;;;;;;15.41;55.46;102354.53;5048389;28;20064;-53
2021/06/07 06:47:43;;;;;;;7.68;2.30;;;;;;;15.48;54.93;102346.91;5051879;28;20558;-50
2021/06/07 06:50:12;;;;;;;5.03;2.20;;;;;;;15.50;55.20;102351.03;5051586;28;20037;-49
2021/06/07 06:52:40;;;;;;;5.10;2.35;;;;;;;15.53;55.62;102347.75;5051773;28;20495;-51
2021/06/07 06:55:08;;;;;;;6.18;2.17;;;;;;;15.54;54.70;102346.69;5044591;28;20056;-51
2021/06/07 06:57:35;;;;;;;3.53;2.10;;;;;;;15.58;54.69;102346.97;5051829;28;20069;-47
2021/06/07 07:00:06;;;;;;;6.10;2.40;;;;;;;15.57;54.40;102350.81;5049692;28;20061;-50
2021/06/07 07:02:34;;;;;;;5.82;2.50;;;;;;;15.54;54.25;102343.13;5045378;28;20503;-47
2021/06/07 07:05:02;;;;;;;7.05;2.65;;;;;;;15.48;54.54;102352.41;5051643;28;20040;-50
2021/06/07 07:07:30;;;;;;;4.00;2.38;;;;;;;15.48;54.44;102342.25;5051671;28;20124;-49
2021/06/07 07:09:57;;;;;;;4.75;2.10;;;;;;;15.53;54.14;102344.19;5051446;28;20127;-49
2021/06/07 07:12:26;;;;;;;4.97;2.58;;;;;;;15.58;54.51;102352.47;5051227;28;20098;-51
2021/06/07 07:14:55;;;;;;;3.97;2.20;;;;;;;15.62;54.30;102348.09;5051190;28;20495;-48
2021/06/07 07:17:22;;;;;;;7.28;2.47;;;;;;;15.71;53.69;102340.25;5051811;28;20049;-49
2021/06/07 07:19:51;;;;;;;5.13;2.40;;;;;;;15.76;54.17;102343.00;5051391;28;20499;-46
2021/06/07 07:22:19;;;;;;;7.43;2.22;;;;;;;15.76;54.33;102338.34;5051354;28;20041;-49
2021/06/07 07:24:47;;;;;;;6.25;2.40;;;;;;;15.81;54.96;102342.22;5051378;28;20052;-47
2021/06/07 07:27:17;;;;;;;5.65;2.80;;;;;;;15.83;55.24;102345.53;5051717;28;20037;-47
2021/06/07 07:29:45;;;;;;;7.38;2.72;;;;;;;15.84;54.46;102344.44;5044397;28;20069;-47
2021/06/07 07:32:14;;;;;;;4.47;2.47;;;;;;;15.87;54.82;102341.97;5051089;28;20075;-47
2021/06/07 07:34:42;;;;;;;4.25;2.28;;;;;;;15.91;54.17;102334.84;5051381;28;20087;-51
2021/06/07 07:37:11;;;;;;;5.85;2.67;;;;;;;15.96;54.73;102345.88;5051890;28;20041;-53
2021/06/07 07:39:39;;;;;;;4.75;2.40;;;;;;;15.99;52.81;102344.50;5051290;28;20102;-51
2021/06/07 07:42:07;;;;;;;4.78;2.50;;;;;;;15.98;52.16;102346.44;5051675;28;20037;-50
2021/06/07 07:44:35;;;;;;;7.10;2.90;;;;;;;15.99;52.28;102347.25;5051022;28;20047;-51
2021/06/07 07:47:05;;;;;;;6.95;2.40;;;;;;;16.06;51.41;102347.84;5051721;28;20037;-52
2021/06/07 07:49:34;;;;;;;6.25;2.55;;;;;;;16.08;51.42;102353.91;5051459;28;20041;-49
2021/06/07 07:52:04;;;;;;;4.55;2.50;;;;;;;16.09;52.15;102352.81;5054321;28;20048;-50
2021/06/07 07:54:33;;;;;;;7.63;2.35;;;;;;;16.11;52.65;102349.78;5055165;28;20044;-50
2021/06/07 07:57:01;;;;;;;7.35;2.40;;;;;;;16.12;52.41;102352.28;5054867;28;20037;-50
2021/06/07 07:59:28;;;;;;;6.18;2.45;;;;;;;16.13;52.42;102342.91;5055847;28;20053;-50
2021/06/07 08:01:57;;;;;;;8.55;3.13;;;;;;;16.18;51.81;102351.19;5055295;28;20052;-48
2021/06/07 08:04:25;;;;;;;7.65;2.83;;;;;;;16.29;51.67;102343.00;5055435;28;20077;-48
2021/06/07 08:06:53;;;;;;;5.05;2.33;;;;;;;16.37;51.58;102353.47;5055227;28;20044;-49
2021/06/07 08:09:20;;;;;;;11.15;2.90;;;;;;;16.44;51.81;102344.97;5055242;28;20045;-51
2021/06/07 08:11:48;;;;;;;6.38;2.50;;;;;;;16.53;50.99;102341.41;5054739;28;20048;-52
2021/06/07 08:14:17;;;;;;;5.47;2.65;;;;;;;16.56;50.74;102338.13;5054987;28;20091;-50
2021/06/07 08:16:45;;;;;;;8.45;3.47;;;;;;;16.59;51.36;102345.00;5054980;28;20052;-50
2021/06/07 08:19:13;;;;;;;8.30;3.90;;;;;;;16.64;50.88;102330.44;5054948;28;20037;-49
2021/06/07 08:21:40;;;;;;;5.53;2.40;;;;;;;16.66;51.91;102328.22;5054646;28;20045;-48
2021/06/07 08:24:08;;;;;;;4.78;2.50;;;;;;;16.68;51.29;102342.56;5054508;28;20037;-49
2021/06/07 08:26:36;;;;;;;6.93;2.70;;;;;;;16.66;51.42;102328.22;5054411;28;20087;-48
2021/06/07 08:29:07;;;;;;;7.70;2.53;;;;;;;16.74;49.89;102334.03;5054777;28;20110;-50
2021/06/07 08:31:39;;;;;;;4.60;2.17;;;;;;;16.81;49.42;102331.03;5054746;28;20073;-50
2021/06/07 08:34:06;;;;;;;7.28;2.80;;;;;;;16.86;49.83;102336.56;5054637;28;20072;-52
2021/06/07 08:36:34;;;;;;;6.53;2.55;;;;;;;16.90;50.23;102328.56;5054492;28;20049;-51
2021/06/07 08:39:05;;;;;;;4.95;2.75;;;;;;;16.94;49.75;102330.50;5054333;28;20045;-52
2021/06/07 08:41:33;;;;;;;8.45;2.67;;;;;;;16.99;49.80;102332.44;5053968;28;20041;-51
2021/06/07 08:44:21;;;;;;;4.20;2.20;;;;;;;17.00;49.88;102334.09;5053373;28;20049;-52
2021/06/07 08:46:49;;;;;;;6.72;2.88;;;;;;;17.03;48.95;102334.38;5054100;28;20099;-51
2021/06/07 08:49:17;;;;;;;8.45;2.83;;;;;;;17.08;48.86;102335.47;5054532;28;20076;-51
2021/06/07 08:51:44;;;;;;;6.05;2.60;;;;;;;17.07;48.46;102333.81;5053970;28;20087;-50
2021/06/07 08:54:12;;;;;;;5.18;2.85;;;;;;;17.07;48.71;102339.34;5054403;28;20126;-50
2021/06/07 08:56:42;;;;;;;5.63;2.67;;;;;;;17.11;49.55;102334.94;5053666;28;20040;-53
2021/06/07 08:59:13;;;;;;;6.53;2.78;;;;;;;17.23;49.57;102335.47;5054461;28;20102;-53
2021/06/07 09:01:41;;;;;;;4.28;2.80;;;;;;;17.26;49.87;102321.16;5053405;28;20049;-54
2021/06/07 09:04:11;;;;;;;5.80;2.50;;;;;;;17.36;48.49;102328.56;5053969;28;20483;-52
2021/06/07 09:06:41;;;;;;;7.25;2.80;;;;;;;17.50;48.42;102326.09;5054620;28;20115;-53
2021/06/07 09:09:10;;;;;;;6.97;2.95;;;;;;;17.56;47.09;102325.81;5053920;28;20036;-53
2021/06/07 09:12:00;;;;;;;8.18;2.60;;;;;;;17.58;47.76;102328.25;5053856;28;20045;-49
2021/06/07 09:14:34;;;;;;;7.15;3.05;;;;;;;17.61;48.17;102328.56;5054099;28;20372;-50
2021/06/07 09:17:16;;;;;;;6.95;2.67;;;;;;;17.61;48.06;102334.06;5054364;28;20045;-49
2021/06/07 09:19:44;;;;;;;5.32;2.47;;;;;;;17.61;48.36;102333.25;5054005;28;20075;-50
2021/06/07 09:22:25;;;;;;;5.70;2.63;;;;;;;17.66;49.97;102330.47;5053752;28;20565;-51
2021/06/07 09:25:13;;;;;;;5.78;2.60;;;;;;;17.84;48.36;102337.34;5053520;28;20076;-54
2021/06/07 09:28:00;;;;;;;4.53;2.60;;;;;;;17.90;48.69;102340.94;5053844;28;20044;-50
2021/06/07 09:30:34;;;;;;;4.72;2.70;;;;;;;17.88;47.16;102328.22;5054001;28;20050;-50
2021/06/07 09:33:37;;;;;;;5.45;2.65;;;;;;;17.90;48.31;102335.41;5053305;28;20045;-50
2021/06/07 09:36:11;;;;;;;11.18;3.03;;;;;;;17.96;47.41;102334.28;5011429;28;20148;-49
2021/06/07 09:39:06;;;;;;;7.85;2.85;;;;;;;17.98;46.88;102332.06;5011073;28;20100;-51
2021/06/07 09:41:50;;;;;;;7.47;2.80;;;;;;;17.93;47.22;102323.81;5011248;28;20054;-49
2021/06/07 09:44:22;;;;;;;4.25;2.50;;;;;;;17.86;47.51;102332.38;5011233;28;20053;-49
2021/06/07 09:46:51;;;;;;;6.55;2.90;;;;;;;17.95;46.64;102335.38;5011351;28;20192;-49
2021/06/07 09:49:21;;;;;;;6.88;2.92;;;;;;;17.98;46.08;102329.31;4995172;28;20041;-51
2021/06/07 09:51:59;;;;;;;5.82;2.50;;;;;;;17.99;46.56;102333.69;5010948;28;20054;-48
2021/06/07 09:54:28;;;;;;;6.88;2.70;;;;;;;17.98;46.32;102321.03;5010950;28;20112;-51
2021/06/07 09:56:58;;;;;;;4.75;2.38;;;;;;;18.00;47.37;102324.34;5010939;28;20050;-49
2021/06/07 09:59:38;;;;;;;7.50;2.60;;;;;;;18.15;46.64;102327.03;5011102;28;20468;-50
2021/06/07 10:02:23;;;;;;;9.00;3.00;;;;;;;18.22;45.30;102335.81;5010840;28;20085;-49
2021/06/07 10:04:58;;;;;;;3.65;2.30;;;;;;;18.19;45.27;102330.88;5011176;28;20050;-51
2021/06/07 10:07:26;;;;;;;7.75;2.67;;;;;;;18.17;45.19;102324.81;5010479;28;20045;-48
2021/06/07 10:10:09;;;;;;;4.20;2.22;;;;;;;18.15;45.50;102323.44;5010811;28;20038;-50
2021/06/07 10:12:39;;;;;;;13.75;5.25;;;;;;;18.17;45.91;102313.78;5047254;28;20052;-50
2021/06/07 10:15:09;;;;;;;6.97;2.65;;;;;;;18.33;45.26;102324.72;5052093;28;20053;-50
2021/06/07 10:17:37;;;;;;;4.60;2.50;;;;;;;18.40;44.18;102322.47;5051610;28;20044;-48
2021/06/07 10:22:35;;;;;;;3.33;2.10;;;;;;;18.39;44.68;102315.31;5051915;28;20045;-50
2021/06/07 10:25:04;;;;;;;5.38;3.05;;;;;;;18.50;43.42;102316.94;5052731;28;20041;-49
2021/06/07 10:27:32;;;;;;;3.50;2.22;;;;;;;18.48;43.75;102327.41;5052487;28;20041;-49
2021/06/07 10:30:00;;;;;;;4.43;2.58;;;;;;;18.47;43.49;102311.94;5052761;28;20048;-49
2021/06/07 10:32:29;;;;;;;6.57;2.58;;;;;;;18.49;43.58;102313.31;5051155;28;20492;-49
2021/06/07 10:35:04;;;;;;;4.68;2.50;;;;;;;18.72;43.25;102314.56;5052032;28;20626;-52
2021/06/07 10:37:34;;;;;;;4.10;2.20;;;;;;;18.82;42.83;102323.91;5051831;28;20067;-49
2021/06/07 10:40:21;;;;;;;6.63;2.72;;;;;;;18.77;43.34;102315.69;5052446;28;20508;-49
2021/06/07 10:43:03;;;;;;;3.25;1.80;;;;;;;18.78;42.67;102311.78;5052539;28;20090;-49
2021/06/07 10:45:33;;;;;;;6.30;2.40;;;;;;;18.75;43.22;102310.41;5051245;28;20125;-49
2021/06/07 10:48:01;;;;;;;3.35;2.40;;;;;;;18.81;43.10;102305.69;5052293;28;20103;-50
2021/06/07 10:50:40;;;;;;;8.73;3.00;;;;;;;19.00;43.21;102303.91;5051827;28;20395;-49
2021/06/07 10:53:08;;;;;;;5.88;2.33;;;;;;;19.08;42.87;102306.03;5051650;28;20460;-50
2021/06/07 10:55:39;;;;;;;6.30;2.50;;;;;;;19.05;43.49;102305.78;5051904;28;20045;-50
2021/06/07 10:58:13;;;;;;;3.65;2.13;;;;;;;19.11;43.10;102308.22;5051997;28;20127;-46
2021/06/07 11:00:46;;;;;;;5.78;2.85;;;;;;;19.13;41.93;102300.47;5051136;28;20041;-50
2021/06/07 11:03:19;;;;;;;21.58;7.22;;;;;;;19.15;44.21;102295.47;5051876;28;20439;-51
2021/06/07 11:05:56;;;;;;;5.25;2.85;;;;;;;19.21;43.69;102307.28;5051450;28;20053;-47
2021/06/07 11:08:29;;;;;;;4.88;2.38;;;;;;;19.24;42.91;102298.44;5051908;28;20057;-50
2021/06/07 11:11:08;;;;;;;13.52;7.38;;;;;;;19.24;42.66;102292.06;5052027;28;20044;-47
2021/06/07 11:13:50;;;;;;;13.13;6.70;;;;;;;19.25;42.88;102288.22;5051712;28;20454;-47
2021/06/07 11:16:28;;;;;;;25.55;14.32;;;;;;;19.31;42.30;102292.56;5039837;28;20099;-49
2021/06/07 11:19:17;;;;;;;4.28;2.80;;;;;;;19.30;41.98;102288.97;5051815;28;20088;-48
2021/06/07 11:21:57;;;;;;;5.28;2.30;;;;;;;19.30;42.89;102290.91;5051587;28;20483;-47
2021/06/07 11:24:25;;;;;;;7.55;3.45;;;;;;;19.35;42.52;102302.75;5051378;28;20450;-51
2021/06/07 11:26:58;;;;;;;4.05;2.30;;;;;;;19.41;41.48;102300.75;5055303;28;20534;-53
2021/06/07 11:29:27;;;;;;;4.75;2.45;;;;;;;19.46;41.47;102300.72;5055648;28;20084;-48
2021/06/07 11:31:56;;;;;;;7.85;2.38;;;;;;;19.42;41.20;102294.09;5055937;28;20044;-49
2021/06/07 11:34:40;;;;;;;5.45;2.60;;;;;;;19.38;41.11;102279.22;5055529;28;20057;-50
2021/06/07 11:37:09;;;;;;;9.57;4.88;;;;;;;19.37;42.56;102291.41;5055861;28;20110;-49
2021/06/07 11:39:43;;;;;;;5.82;3.00;;;;;;;19.52;43.41;102291.22;5055634;28;20045;-49
2021/06/07 11:42:14;;;;;;;4.75;2.20;;;;;;;19.59;41.20;102282.59;5042590;28;20041;-52